sensor_id;sensor_type;location;lat;lon;timestamp;P1;durP1;ratioP1;P2;durP2;ratioP2
75520;SDS011;64102;48.628;9.002;2023-03-01T00:01:39;8.30;;;0.93;;
75520;SDS011;64102;48.628;9.002;2023-03-01T00:04:05;5.03;;;1.10;;
75520;SDS011;64102;48.628;9.002;2023-03-01T00:06:31;6.68;;;1.58;;
75520;SDS011;64102;48.628;9.002;2023-03-01T00:08:56;7.65;;;1.00;;
75520;SDS011;64102;48.628;9.002;2023-03-01T00:11:22;4.90;;;0.68;;
75520;SDS011;64102;48.628;9.002;2023-03-01T00:13:51;9.02;;;1.38;;
75520;SDS011;64102;48.628;9.002;2023-03-01T00:16:22;4.07;;;0.47;;
75520;SDS011;64102;48.628;9.002;2023-03-01T00:18:50;5.20;;;0.77;;
75520;SDS011;64102;48.628;9.002;2023-03-01T00:21:16;6.00;;;0.73;;
75520;SDS011;64102;48.628;9.002;2023-03-01T00:23:42;6.07;;;0.68;;
75520;SDS011;64102;48.628;9.002;2023-03-01T00:26:09;7.32;;;0.50;;
75520;SDS011;64102;48.628;9.002;2023-03-01T00:28:36;1.73;;;0.10;;
75520;SDS011;64102;48.628;9.002;2023-03-01T00:31:05;6.05;;;0.70;;
75520;SDS011;64102;48.628;9.002;2023-03-01T00:33:33;9.43;;;0.90;;
75520;SDS011;64102;48.628;9.002;2023-03-01T00:35:59;4.68;;;0.70;;
75520;SDS011;64102;48.628;9.002;2023-03-01T00:38:25;6.25;;;1.63;;
75520;SDS011;64102;48.628;9.002;2023-03-01T00:40:51;9.43;;;1.58;;
75520;SDS011;64102;48.628;9.002;2023-03-01T00:43:16;5.50;;;0.70;;
75520;SDS011;64102;48.628;9.002;2023-03-01T00:45:43;6.32;;;0.88;;
75520;SDS011;64102;48.628;9.002;2023-03-01T00:48:08;9.15;;;0.75;;
75520;SDS011;64102;48.628;9.002;2023-03-01T00:50:33;5.03;;;0.70;;
75520;SDS011;64102;48.628;9.002;2023-03-01T00:52:59;5.70;;;0.88;;
75520;SDS011;64102;48.628;9.002;2023-03-01T00:55:24;4.47;;;1.17;;
75520;SDS011;64102;48.628;9.002;2023-03-01T00:57:50;4.80;;;0.55;;
75520;SDS011;64102;48.628;9.002;2023-03-01T01:00:16;5.10;;;1.33;;
75520;SDS011;64102;48.628;9.002;2023-03-01T01:02:41;8.25;;;1.45;;
75520;SDS011;64102;48.628;9.002;2023-03-01T01:05:07;6.65;;;1.00;;
75520;SDS011;64102;48.628;9.002;2023-03-01T01:07:32;4.25;;;0.50;;
75520;SDS011;64102;48.628;9.002;2023-03-01T01:09:58;1.60;;;0.23;;
75520;SDS011;64102;48.628;9.002;2023-03-01T01:12:23;3.70;;;0.43;;
75520;SDS011;64102;48.628;9.002;2023-03-01T01:14:48;6.13;;;0.60;;
75520;SDS011;64102;48.628;9.002;2023-03-01T01:17:14;2.10;;;0.43;;
75520;SDS011;64102;48.628;9.002;2023-03-01T01:19:39;5.77;;;0.70;;
75520;SDS011;64102;48.628;9.002;2023-03-01T01:22:04;2.33;;;0.40;;
75520;SDS011;64102;48.628;9.002;2023-03-01T01:24:30;7.97;;;1.35;;
75520;SDS011;64102;48.628;9.002;2023-03-01T01:26:55;6.10;;;1.35;;
75520;SDS011;64102;48.628;9.002;2023-03-01T01:29:21;7.93;;;1.27;;
75520;SDS011;64102;48.628;9.002;2023-03-01T01:31:47;5.57;;;0.68;;
75520;SDS011;64102;48.628;9.002;2023-03-01T01:34:13;6.47;;;0.67;;
75520;SDS011;64102;48.628;9.002;2023-03-01T01:36:44;8.65;;;1.65;;
75520;SDS011;64102;48.628;9.002;2023-03-01T01:39:13;7.38;;;1.95;;
75520;SDS011;64102;48.628;9.002;2023-03-01T01:41:40;6.43;;;1.13;;
75520;SDS011;64102;48.628;9.002;2023-03-01T01:44:14;8.32;;;0.88;;
75520;SDS011;64102;48.628;9.002;2023-03-01T01:46:46;5.43;;;0.60;;
75520;SDS011;64102;48.628;9.002;2023-03-01T01:49:27;10.43;;;1.48;;
75520;SDS011;64102;48.628;9.002;2023-03-01T01:52:16;6.97;;;0.65;;
75520;SDS011;64102;48.628;9.002;2023-03-01T01:54:53;7.35;;;0.73;;
75520;SDS011;64102;48.628;9.002;2023-03-01T01:57:51;6.55;;;0.73;;
75520;SDS011;64102;48.628;9.002;2023-03-01T02:00:20;2.63;;;0.25;;
75520;SDS011;64102;48.628;9.002;2023-03-01T02:02:48;7.70;;;1.42;;
75520;SDS011;64102;48.628;9.002;2023-03-01T02:08:14;7.63;;;1.05;;
75520;SDS011;64102;48.628;9.002;2023-03-01T02:10:43;9.13;;;1.30;;
75520;SDS011;64102;48.628;9.002;2023-03-01T02:13:10;6.95;;;1.20;;
75520;SDS011;64102;48.628;9.002;2023-03-01T02:15:37;2.70;;;0.63;;
75520;SDS011;64102;48.628;9.002;2023-03-01T02:18:04;5.10;;;1.13;;
75520;SDS011;64102;48.628;9.002;2023-03-01T02:20:40;7.68;;;1.02;;
75520;SDS011;64102;48.628;9.002;2023-03-01T02:23:15;6.80;;;1.17;;
75520;SDS011;64102;48.628;9.002;2023-03-01T02:25:44;7.93;;;1.02;;
75520;SDS011;64102;48.628;9.002;2023-03-01T02:28:33;7.18;;;0.93;;
75520;SDS011;64102;48.628;9.002;2023-03-01T02:31:00;11.27;;;1.38;;
75520;SDS011;64102;48.628;9.002;2023-03-01T02:33:45;6.97;;;1.30;;
75520;SDS011;64102;48.628;9.002;2023-03-01T02:36:15;6.65;;;1.17;;
75520;SDS011;64102;48.628;9.002;2023-03-01T02:38:44;6.15;;;0.65;;
75520;SDS011;64102;48.628;9.002;2023-03-01T02:41:10;4.55;;;0.77;;
75520;SDS011;64102;48.628;9.002;2023-03-01T02:43:40;6.07;;;0.82;;
75520;SDS011;64102;48.628;9.002;2023-03-01T02:46:06;7.88;;;1.23;;
75520;SDS011;64102;48.628;9.002;2023-03-01T02:48:53;5.05;;;0.95;;
75520;SDS011;64102;48.628;9.002;2023-03-01T02:56:28;4.03;;;0.73;;
75520;SDS011;64102;48.628;9.002;2023-03-01T02:58:55;8.10;;;1.00;;
75520;SDS011;64102;48.628;9.002;2023-03-01T03:01:25;7.50;;;0.52;;
75520;SDS011;64102;48.628;9.002;2023-03-01T03:04:09;9.23;;;1.20;;
75520;SDS011;64102;48.628;9.002;2023-03-01T03:06:36;9.23;;;1.20;;
75520;SDS011;64102;48.628;9.002;2023-03-01T03:09:02;4.53;;;0.73;;
75520;SDS011;64102;48.628;9.002;2023-03-01T03:11:29;4.88;;;0.93;;
75520;SDS011;64102;48.628;9.002;2023-03-01T03:13:55;9.77;;;1.42;;
75520;SDS011;64102;48.628;9.002;2023-03-01T03:16:21;5.38;;;0.82;;
75520;SDS011;64102;48.628;9.002;2023-03-01T03:18:47;4.68;;;0.77;;
75520;SDS011;64102;48.628;9.002;2023-03-01T03:21:13;7.90;;;1.23;;
75520;SDS011;64102;48.628;9.002;2023-03-01T03:23:39;9.23;;;1.77;;
75520;SDS011;64102;48.628;9.002;2023-03-01T03:26:05;8.60;;;1.23;;
75520;SDS011;64102;48.628;9.002;2023-03-01T03:28:31;4.78;;;0.88;;
75520;SDS011;64102;48.628;9.002;2023-03-01T03:30:57;10.23;;;1.33;;
75520;SDS011;64102;48.628;9.002;2023-03-01T03:33:23;7.40;;;1.58;;
75520;SDS011;64102;48.628;9.002;2023-03-01T03:35:49;7.50;;;1.15;;
75520;SDS011;64102;48.628;9.002;2023-03-01T03:38:16;10.85;;;2.50;;
75520;SDS011;64102;48.628;9.002;2023-03-01T03:40:48;9.05;;;1.67;;
75520;SDS011;64102;48.628;9.002;2023-03-01T03:45:43;7.72;;;1.40;;
75520;SDS011;64102;48.628;9.002;2023-03-01T03:48:10;9.35;;;1.63;;
75520;SDS011;64102;48.628;9.002;2023-03-01T03:50:36;9.27;;;1.02;;
75520;SDS011;64102;48.628;9.002;2023-03-01T03:53:03;6.00;;;0.70;;
75520;SDS011;64102;48.628;9.002;2023-03-01T03:55:31;8.52;;;1.45;;
75520;SDS011;64102;48.628;9.002;2023-03-01T03:57:59;7.47;;;1.33;;
75520;SDS011;64102;48.628;9.002;2023-03-01T04:00:31;9.15;;;1.38;;
75520;SDS011;64102;48.628;9.002;2023-03-01T04:02:57;9.18;;;1.75;;
75520;SDS011;64102;48.628;9.002;2023-03-01T04:05:23;5.15;;;0.52;;
75520;SDS011;64102;48.628;9.002;2023-03-01T04:07:48;6.85;;;1.08;;
75520;SDS011;64102;48.628;9.002;2023-03-01T04:10:17;4.70;;;0.67;;
75520;SDS011;64102;48.628;9.002;2023-03-01T04:12:43;5.55;;;0.73;;
75520;SDS011;64102;48.628;9.002;2023-03-01T04:15:09;13.00;;;1.20;;
75520;SDS011;64102;48.628;9.002;2023-03-01T04:17:39;9.23;;;2.22;;
75520;SDS011;64102;48.628;9.002;2023-03-01T04:20:06;9.75;;;1.65;;
75520;SDS011;64102;48.628;9.002;2023-03-01T04:22:34;8.52;;;0.82;;
75520;SDS011;64102;48.628;9.002;2023-03-01T04:25:00;10.70;;;2.10;;
75520;SDS011;64102;48.628;9.002;2023-03-01T04:27:26;10.55;;;1.77;;
75520;SDS011;64102;48.628;9.002;2023-03-01T04:29:52;8.27;;;1.87;;
75520;SDS011;64102;48.628;9.002;2023-03-01T04:32:17;6.33;;;1.40;;
75520;SDS011;64102;48.628;9.002;2023-03-01T04:34:43;7.97;;;1.38;;
75520;SDS011;64102;48.628;9.002;2023-03-01T04:37:08;11.80;;;2.20;;
75520;SDS011;64102;48.628;9.002;2023-03-01T04:39:34;9.15;;;1.30;;
75520;SDS011;64102;48.628;9.002;2023-03-01T04:42:10;6.07;;;0.90;;
75520;SDS011;64102;48.628;9.002;2023-03-01T04:44:36;11.38;;;1.83;;
75520;SDS011;64102;48.628;9.002;2023-03-01T04:47:02;5.50;;;0.98;;
75520;SDS011;64102;48.628;9.002;2023-03-01T04:49:27;10.67;;;1.73;;
75520;SDS011;64102;48.628;9.002;2023-03-01T04:51:52;6.03;;;1.17;;
75520;SDS011;64102;48.628;9.002;2023-03-01T04:54:18;15.07;;;2.27;;
75520;SDS011;64102;48.628;9.002;2023-03-01T04:56:43;8.30;;;1.57;;
75520;SDS011;64102;48.628;9.002;2023-03-01T04:59:08;8.00;;;1.77;;
75520;SDS011;64102;48.628;9.002;2023-03-01T05:01:35;5.85;;;0.75;;
75520;SDS011;64102;48.628;9.002;2023-03-01T05:04:00;8.85;;;1.80;;
75520;SDS011;64102;48.628;9.002;2023-03-01T05:06:28;5.60;;;0.88;;
75520;SDS011;64102;48.628;9.002;2023-03-01T05:08:53;12.27;;;1.27;;
75520;SDS011;64102;48.628;9.002;2023-03-01T05:11:19;10.17;;;1.90;;
75520;SDS011;64102;48.628;9.002;2023-03-01T05:13:44;8.07;;;1.60;;
75520;SDS011;64102;48.628;9.002;2023-03-01T05:16:10;8.73;;;1.47;;
75520;SDS011;64102;48.628;9.002;2023-03-01T05:18:36;9.25;;;1.85;;
75520;SDS011;64102;48.628;9.002;2023-03-01T05:21:06;6.78;;;1.20;;
75520;SDS011;64102;48.628;9.002;2023-03-01T05:23:42;9.38;;;1.65;;
75520;SDS011;64102;48.628;9.002;2023-03-01T05:26:07;8.27;;;1.27;;
75520;SDS011;64102;48.628;9.002;2023-03-01T05:28:33;8.77;;;1.05;;
75520;SDS011;64102;48.628;9.002;2023-03-01T05:30:59;13.23;;;2.08;;
75520;SDS011;64102;48.628;9.002;2023-03-01T05:33:24;11.17;;;1.97;;
75520;SDS011;64102;48.628;9.002;2023-03-01T05:35:50;8.60;;;2.33;;
75520;SDS011;64102;48.628;9.002;2023-03-01T05:38:17;9.25;;;1.58;;
75520;SDS011;64102;48.628;9.002;2023-03-01T05:40:43;9.88;;;2.08;;
75520;SDS011;64102;48.628;9.002;2023-03-01T05:43:10;10.50;;;1.80;;
75520;SDS011;64102;48.628;9.002;2023-03-01T05:45:37;7.88;;;0.95;;
75520;SDS011;64102;48.628;9.002;2023-03-01T05:48:03;8.68;;;1.85;;
75520;SDS011;64102;48.628;9.002;2023-03-01T05:50:33;14.05;;;2.90;;
75520;SDS011;64102;48.628;9.002;2023-03-01T05:53:09;13.47;;;2.30;;
75520;SDS011;64102;48.628;9.002;2023-03-01T05:55:36;6.65;;;1.38;;
75520;SDS011;64102;48.628;9.002;2023-03-01T05:58:03;6.03;;;1.63;;
75520;SDS011;64102;48.628;9.002;2023-03-01T06:00:31;7.43;;;1.17;;
75520;SDS011;64102;48.628;9.002;2023-03-01T06:02:57;10.82;;;1.80;;
75520;SDS011;64102;48.628;9.002;2023-03-01T06:05:24;9.25;;;2.03;;
75520;SDS011;64102;48.628;9.002;2023-03-01T06:07:50;11.02;;;2.20;;
75520;SDS011;64102;48.628;9.002;2023-03-01T06:10:16;14.25;;;3.03;;
75520;SDS011;64102;48.628;9.002;2023-03-01T06:12:43;10.63;;;1.70;;
75520;SDS011;64102;48.628;9.002;2023-03-01T06:15:09;12.30;;;1.52;;
75520;SDS011;64102;48.628;9.002;2023-03-01T06:17:38;12.63;;;2.35;;
75520;SDS011;64102;48.628;9.002;2023-03-01T06:20:06;10.60;;;2.25;;
75520;SDS011;64102;48.628;9.002;2023-03-01T06:22:32;14.00;;;2.40;;
75520;SDS011;64102;48.628;9.002;2023-03-01T06:24:57;13.00;;;1.97;;
75520;SDS011;64102;48.628;9.002;2023-03-01T06:27:23;11.30;;;2.15;;
75520;SDS011;64102;48.628;9.002;2023-03-01T06:29:48;15.90;;;1.90;;
75520;SDS011;64102;48.628;9.002;2023-03-01T06:32:13;7.37;;;1.30;;
75520;SDS011;64102;48.628;9.002;2023-03-01T06:34:39;8.52;;;1.17;;
75520;SDS011;64102;48.628;9.002;2023-03-01T06:37:04;11.23;;;1.70;;
75520;SDS011;64102;48.628;9.002;2023-03-01T06:39:31;10.02;;;1.67;;
75520;SDS011;64102;48.628;9.002;2023-03-01T06:41:57;13.45;;;2.63;;
75520;SDS011;64102;48.628;9.002;2023-03-01T06:44:22;14.65;;;2.55;;
75520;SDS011;64102;48.628;9.002;2023-03-01T06:46:48;9.98;;;2.05;;
75520;SDS011;64102;48.628;9.002;2023-03-01T06:49:13;6.97;;;1.03;;
75520;SDS011;64102;48.628;9.002;2023-03-01T06:51:41;10.20;;;2.03;;
75520;SDS011;64102;48.628;9.002;2023-03-01T06:54:06;12.48;;;2.83;;
75520;SDS011;64102;48.628;9.002;2023-03-01T06:56:32;10.23;;;2.13;;
75520;SDS011;64102;48.628;9.002;2023-03-01T06:58:58;12.40;;;2.28;;
75520;SDS011;64102;48.628;9.002;2023-03-01T07:01:24;10.93;;;2.40;;
75520;SDS011;64102;48.628;9.002;2023-03-01T07:03:49;13.35;;;2.78;;
75520;SDS011;64102;48.628;9.002;2023-03-01T07:06:14;10.95;;;1.73;;
75520;SDS011;64102;48.628;9.002;2023-03-01T07:08:40;11.65;;;2.67;;
75520;SDS011;64102;48.628;9.002;2023-03-01T07:11:05;10.73;;;2.67;;
75520;SDS011;64102;48.628;9.002;2023-03-01T07:13:32;11.90;;;1.85;;
75520;SDS011;64102;48.628;9.002;2023-03-01T07:15:57;11.60;;;2.33;;
75520;SDS011;64102;48.628;9.002;2023-03-01T07:18:23;11.15;;;2.13;;
75520;SDS011;64102;48.628;9.002;2023-03-01T07:20:49;8.95;;;1.70;;
75520;SDS011;64102;48.628;9.002;2023-03-01T07:23:14;15.13;;;3.08;;
75520;SDS011;64102;48.628;9.002;2023-03-01T07:25:40;14.52;;;2.80;;
75520;SDS011;64102;48.628;9.002;2023-03-01T07:28:06;12.85;;;2.78;;
75520;SDS011;64102;48.628;9.002;2023-03-01T07:30:31;9.50;;;2.28;;
75520;SDS011;64102;48.628;9.002;2023-03-01T07:32:57;13.02;;;2.70;;
75520;SDS011;64102;48.628;9.002;2023-03-01T07:35:23;12.10;;;2.10;;
75520;SDS011;64102;48.628;9.002;2023-03-01T07:37:50;12.77;;;3.08;;
75520;SDS011;64102;48.628;9.002;2023-03-01T07:40:16;11.95;;;2.15;;
75520;SDS011;64102;48.628;9.002;2023-03-01T07:42:41;10.82;;;2.42;;
75520;SDS011;64102;48.628;9.002;2023-03-01T07:45:07;13.13;;;3.20;;
75520;SDS011;64102;48.628;9.002;2023-03-01T07:47:32;11.50;;;2.83;;
75520;SDS011;64102;48.628;9.002;2023-03-01T07:49:58;14.70;;;3.13;;
75520;SDS011;64102;48.628;9.002;2023-03-01T07:52:23;14.45;;;3.10;;
75520;SDS011;64102;48.628;9.002;2023-03-01T07:54:49;15.63;;;3.85;;
75520;SDS011;64102;48.628;9.002;2023-03-01T07:57:14;14.55;;;4.43;;
75520;SDS011;64102;48.628;9.002;2023-03-01T07:59:40;13.43;;;2.92;;
75520;SDS011;64102;48.628;9.002;2023-03-01T08:02:05;8.88;;;1.70;;
75520;SDS011;64102;48.628;9.002;2023-03-01T08:04:31;16.70;;;3.63;;
75520;SDS011;64102;48.628;9.002;2023-03-01T08:06:57;12.93;;;2.83;;
75520;SDS011;64102;48.628;9.002;2023-03-01T08:09:23;17.50;;;3.97;;
75520;SDS011;64102;48.628;9.002;2023-03-01T08:11:49;8.15;;;1.23;;
75520;SDS011;64102;48.628;9.002;2023-03-01T08:14:14;11.15;;;2.92;;
75520;SDS011;64102;48.628;9.002;2023-03-01T08:16:40;12.52;;;2.72;;
75520;SDS011;64102;48.628;9.002;2023-03-01T08:19:06;14.90;;;3.30;;
75520;SDS011;64102;48.628;9.002;2023-03-01T08:21:33;8.98;;;1.70;;
75520;SDS011;64102;48.628;9.002;2023-03-01T08:24:02;12.48;;;2.90;;
75520;SDS011;64102;48.628;9.002;2023-03-01T08:26:29;8.52;;;1.77;;
75520;SDS011;64102;48.628;9.002;2023-03-01T08:28:55;10.88;;;2.08;;
75520;SDS011;64102;48.628;9.002;2023-03-01T08:31:22;9.70;;;2.75;;
75520;SDS011;64102;48.628;9.002;2023-03-01T08:33:56;9.57;;;1.58;;
75520;SDS011;64102;48.628;9.002;2023-03-01T08:36:24;13.07;;;3.40;;
75520;SDS011;64102;48.628;9.002;2023-03-01T08:38:51;12.05;;;3.13;;
75520;SDS011;64102;48.628;9.002;2023-03-01T08:41:17;10.85;;;2.55;;
75520;SDS011;64102;48.628;9.002;2023-03-01T08:43:43;10.10;;;1.75;;
75520;SDS011;64102;48.628;9.002;2023-03-01T08:46:09;12.43;;;2.45;;
75520;SDS011;64102;48.628;9.002;2023-03-01T08:48:34;10.93;;;2.47;;
75520;SDS011;64102;48.628;9.002;2023-03-01T08:51:13;12.73;;;2.93;;
75520;SDS011;64102;48.628;9.002;2023-03-01T08:53:40;13.68;;;2.72;;
75520;SDS011;64102;48.628;9.002;2023-03-01T08:56:06;9.32;;;2.50;;
75520;SDS011;64102;48.628;9.002;2023-03-01T08:58:32;12.80;;;3.40;;
75520;SDS011;64102;48.628;9.002;2023-03-01T09:00:58;16.15;;;3.30;;
75520;SDS011;64102;48.628;9.002;2023-03-01T09:03:23;13.77;;;3.83;;
75520;SDS011;64102;48.628;9.002;2023-03-01T09:05:49;15.60;;;4.13;;
75520;SDS011;64102;48.628;9.002;2023-03-01T09:08:18;6.63;;;0.98;;
75520;SDS011;64102;48.628;9.002;2023-03-01T09:10:44;15.02;;;3.83;;
75520;SDS011;64102;48.628;9.002;2023-03-01T09:13:13;13.90;;;3.22;;
75520;SDS011;64102;48.628;9.002;2023-03-01T09:15:38;12.93;;;3.90;;
75520;SDS011;64102;48.628;9.002;2023-03-01T09:18:04;15.73;;;3.33;;
75520;SDS011;64102;48.628;9.002;2023-03-01T09:20:31;15.30;;;4.07;;
75520;SDS011;64102;48.628;9.002;2023-03-01T09:22:56;10.48;;;1.88;;
75520;SDS011;64102;48.628;9.002;2023-03-01T09:25:22;10.43;;;2.45;;
75520;SDS011;64102;48.628;9.002;2023-03-01T09:27:50;16.30;;;4.40;;
75520;SDS011;64102;48.628;9.002;2023-03-01T09:30:16;12.82;;;3.20;;
75520;SDS011;64102;48.628;9.002;2023-03-01T09:32:42;14.50;;;3.85;;
75520;SDS011;64102;48.628;9.002;2023-03-01T09:35:09;12.85;;;3.08;;
75520;SDS011;64102;48.628;9.002;2023-03-01T09:37:35;15.27;;;3.80;;
75520;SDS011;64102;48.628;9.002;2023-03-01T09:40:02;13.30;;;3.83;;
75520;SDS011;64102;48.628;9.002;2023-03-01T09:42:29;11.65;;;3.47;;
75520;SDS011;64102;48.628;9.002;2023-03-01T09:45:06;9.23;;;2.00;;
75520;SDS011;64102;48.628;9.002;2023-03-01T09:47:35;14.75;;;3.60;;
75520;SDS011;64102;48.628;9.002;2023-03-01T09:52:48;15.43;;;4.13;;
75520;SDS011;64102;48.628;9.002;2023-03-01T09:55:26;14.75;;;3.60;;
75520;SDS011;64102;48.628;9.002;2023-03-01T09:57:58;10.68;;;2.45;;
75520;SDS011;64102;48.628;9.002;2023-03-01T10:00:47;11.13;;;2.80;;
75520;SDS011;64102;48.628;9.002;2023-03-01T10:03:16;13.98;;;3.83;;
75520;SDS011;64102;48.628;9.002;2023-03-01T10:11:19;16.10;;;3.90;;
75520;SDS011;64102;48.628;9.002;2023-03-01T10:16:57;11.80;;;3.55;;
75520;SDS011;64102;48.628;9.002;2023-03-01T10:19:36;15.13;;;5.00;;
75520;SDS011;64102;48.628;9.002;2023-03-01T10:22:10;13.70;;;3.08;;
75520;SDS011;64102;48.628;9.002;2023-03-01T10:24:46;11.15;;;1.98;;
75520;SDS011;64102;48.628;9.002;2023-03-01T10:27:21;11.85;;;3.65;;
75520;SDS011;64102;48.628;9.002;2023-03-01T10:32:18;10.50;;;2.35;;
75520;SDS011;64102;48.628;9.002;2023-03-01T10:34:44;14.50;;;3.70;;
75520;SDS011;64102;48.628;9.002;2023-03-01T10:42:26;13.15;;;4.15;;
75520;SDS011;64102;48.628;9.002;2023-03-01T10:44:54;16.25;;;4.10;;
75520;SDS011;64102;48.628;9.002;2023-03-01T10:47:20;15.25;;;3.28;;
75520;SDS011;64102;48.628;9.002;2023-03-01T10:52:30;10.02;;;2.72;;
75520;SDS011;64102;48.628;9.002;2023-03-01T10:54:59;13.95;;;4.70;;
75520;SDS011;64102;48.628;9.002;2023-03-01T11:00:13;13.68;;;3.22;;
75520;SDS011;64102;48.628;9.002;2023-03-01T11:02:45;10.95;;;2.42;;
75520;SDS011;64102;48.628;9.002;2023-03-01T11:08:13;15.43;;;3.88;;
75520;SDS011;64102;48.628;9.002;2023-03-01T11:10:32;14.05;;;3.45;;
75520;SDS011;64102;48.628;9.002;2023-03-01T11:13:16;11.32;;;3.25;;
75520;SDS011;64102;48.628;9.002;2023-03-01T11:16:00;10.70;;;2.45;;
75520;SDS011;64102;48.628;9.002;2023-03-01T11:18:35;12.70;;;3.78;;
75520;SDS011;64102;48.628;9.002;2023-03-01T11:21:00;13.32;;;2.40;;
75520;SDS011;64102;48.628;9.002;2023-03-01T11:23:27;11.20;;;2.78;;
75520;SDS011;64102;48.628;9.002;2023-03-01T11:25:57;14.95;;;3.10;;
75520;SDS011;64102;48.628;9.002;2023-03-01T11:28:25;15.98;;;3.78;;
75520;SDS011;64102;48.628;9.002;2023-03-01T11:38:46;11.70;;;2.58;;
75520;SDS011;64102;48.628;9.002;2023-03-01T11:54:19;13.35;;;3.10;;
75520;SDS011;64102;48.628;9.002;2023-03-01T11:56:47;9.63;;;2.50;;
75520;SDS011;64102;48.628;9.002;2023-03-01T11:59:45;11.82;;;3.08;;
75520;SDS011;64102;48.628;9.002;2023-03-01T12:25:07;12.87;;;3.40;;
75520;SDS011;64102;48.628;9.002;2023-03-01T12:50:35;15.00;;;2.92;;
75520;SDS011;64102;48.628;9.002;2023-03-01T12:53:28;13.25;;;3.28;;
75520;SDS011;64102;48.628;9.002;2023-03-01T12:56:00;13.02;;;3.55;;
75520;SDS011;64102;48.628;9.002;2023-03-01T13:01:36;13.07;;;2.80;;
75520;SDS011;64102;48.628;9.002;2023-03-01T13:06:55;13.73;;;3.60;;
75520;SDS011;64102;48.628;9.002;2023-03-01T13:09:31;10.57;;;2.00;;
75520;SDS011;64102;48.628;9.002;2023-03-01T13:20:19;13.13;;;3.80;;
75520;SDS011;64102;48.628;9.002;2023-03-01T13:22:48;13.55;;;3.58;;
75520;SDS011;64102;48.628;9.002;2023-03-01T13:25:30;9.75;;;2.05;;
75520;SDS011;64102;48.628;9.002;2023-03-01T13:31:11;14.82;;;3.67;;
75520;SDS011;64102;48.628;9.002;2023-03-01T13:33:53;15.77;;;3.83;;
75520;SDS011;64102;48.628;9.002;2023-03-01T13:46:47;12.13;;;2.93;;
75520;SDS011;64102;48.628;9.002;2023-03-01T13:49:16;13.90;;;3.33;;
75520;SDS011;64102;48.628;9.002;2023-03-01T13:51:46;11.50;;;3.10;;
75520;SDS011;64102;48.628;9.002;2023-03-01T13:54:12;11.55;;;2.83;;
75520;SDS011;64102;48.628;9.002;2023-03-01T13:56:40;11.50;;;2.38;;
75520;SDS011;64102;48.628;9.002;2023-03-01T13:59:06;15.65;;;3.40;;
75520;SDS011;64102;48.628;9.002;2023-03-01T14:01:40;13.48;;;3.08;;
75520;SDS011;64102;48.628;9.002;2023-03-01T14:09:34;11.07;;;2.33;;
75520;SDS011;64102;48.628;9.002;2023-03-01T14:14:52;12.93;;;3.08;;
75520;SDS011;64102;48.628;9.002;2023-03-01T14:19:57;9.82;;;2.40;;
75520;SDS011;64102;48.628;9.002;2023-03-01T14:22:28;10.20;;;1.98;;
75520;SDS011;64102;48.628;9.002;2023-03-01T14:24:59;14.65;;;3.55;;
75520;SDS011;64102;48.628;9.002;2023-03-01T14:27:28;10.90;;;2.78;;
75520;SDS011;64102;48.628;9.002;2023-03-01T14:30:02;11.43;;;2.35;;
75520;SDS011;64102;48.628;9.002;2023-03-01T14:32:35;9.77;;;1.88;;
75520;SDS011;64102;48.628;9.002;2023-03-01T14:35:00;7.93;;;1.27;;
75520;SDS011;64102;48.628;9.002;2023-03-01T14:37:33;9.55;;;1.45;;
75520;SDS011;64102;48.628;9.002;2023-03-01T14:40:01;11.82;;;2.42;;
75520;SDS011;64102;48.628;9.002;2023-03-01T14:42:34;10.25;;;2.25;;
75520;SDS011;64102;48.628;9.002;2023-03-01T14:45:02;9.90;;;1.30;;
75520;SDS011;64102;48.628;9.002;2023-03-01T14:47:33;13.23;;;2.58;;
75520;SDS011;64102;48.628;9.002;2023-03-01T14:50:34;13.85;;;3.17;;
75520;SDS011;64102;48.628;9.002;2023-03-01T14:53:03;11.20;;;2.80;;
75520;SDS011;64102;48.628;9.002;2023-03-01T14:55:33;17.00;;;3.55;;
75520;SDS011;64102;48.628;9.002;2023-03-01T14:58:05;14.18;;;3.78;;
75520;SDS011;64102;48.628;9.002;2023-03-01T15:00:34;12.98;;;3.38;;
75520;SDS011;64102;48.628;9.002;2023-03-01T15:03:05;13.23;;;3.45;;
75520;SDS011;64102;48.628;9.002;2023-03-01T15:05:38;13.07;;;2.85;;
75520;SDS011;64102;48.628;9.002;2023-03-01T15:08:05;12.40;;;2.70;;
75520;SDS011;64102;48.628;9.002;2023-03-01T15:10:35;13.70;;;3.25;;
75520;SDS011;64102;48.628;9.002;2023-03-01T15:13:19;16.08;;;4.32;;
75520;SDS011;64102;48.628;9.002;2023-03-01T15:15:47;14.10;;;3.30;;
75520;SDS011;64102;48.628;9.002;2023-03-01T15:20:46;11.77;;;2.97;;
75520;SDS011;64102;48.628;9.002;2023-03-01T15:23:26;13.45;;;3.15;;
75520;SDS011;64102;48.628;9.002;2023-03-01T15:25:53;12.32;;;3.05;;
75520;SDS011;64102;48.628;9.002;2023-03-01T15:28:33;16.33;;;4.28;;
75520;SDS011;64102;48.628;9.002;2023-03-01T15:31:06;14.68;;;3.60;;
75520;SDS011;64102;48.628;9.002;2023-03-01T15:33:38;13.10;;;3.65;;
75520;SDS011;64102;48.628;9.002;2023-03-01T15:36:29;17.73;;;3.30;;
75520;SDS011;64102;48.628;9.002;2023-03-01T15:38:57;15.35;;;3.22;;
75520;SDS011;64102;48.628;9.002;2023-03-01T15:41:58;11.80;;;2.80;;
75520;SDS011;64102;48.628;9.002;2023-03-01T15:44:17;13.35;;;3.17;;
75520;SDS011;64102;48.628;9.002;2023-03-01T15:46:50;12.48;;;2.78;;
75520;SDS011;64102;48.628;9.002;2023-03-01T15:49:34;14.18;;;3.00;;
75520;SDS011;64102;48.628;9.002;2023-03-01T15:52:03;14.65;;;3.42;;
75520;SDS011;64102;48.628;9.002;2023-03-01T15:54:30;12.70;;;3.10;;
75520;SDS011;64102;48.628;9.002;2023-03-01T15:56:56;13.07;;;2.58;;
75520;SDS011;64102;48.628;9.002;2023-03-01T15:59:22;13.07;;;3.35;;
75520;SDS011;64102;48.628;9.002;2023-03-01T16:01:47;16.63;;;3.70;;
75520;SDS011;64102;48.628;9.002;2023-03-01T16:04:14;15.13;;;3.42;;
75520;SDS011;64102;48.628;9.002;2023-03-01T16:06:48;11.40;;;2.55;;
75520;SDS011;64102;48.628;9.002;2023-03-01T16:09:23;12.93;;;2.95;;
75520;SDS011;64102;48.628;9.002;2023-03-01T16:11:50;13.45;;;3.00;;
75520;SDS011;64102;48.628;9.002;2023-03-01T16:14:17;11.60;;;2.90;;
75520;SDS011;64102;48.628;9.002;2023-03-01T16:16:43;14.18;;;2.90;;
75520;SDS011;64102;48.628;9.002;2023-03-01T16:19:09;12.30;;;3.13;;
75520;SDS011;64102;48.628;9.002;2023-03-01T16:21:35;11.85;;;2.50;;
75520;SDS011;64102;48.628;9.002;2023-03-01T16:24:01;12.93;;;2.95;;
75520;SDS011;64102;48.628;9.002;2023-03-01T16:26:26;13.70;;;2.88;;
75520;SDS011;64102;48.628;9.002;2023-03-01T16:28:54;12.93;;;2.92;;
75520;SDS011;64102;48.628;9.002;2023-03-01T16:31:21;14.20;;;3.00;;
75520;SDS011;64102;48.628;9.002;2023-03-01T16:33:48;12.68;;;2.85;;
75520;SDS011;64102;48.628;9.002;2023-03-01T16:36:18;16.98;;;2.90;;
75520;SDS011;64102;48.628;9.002;2023-03-01T16:38:49;11.98;;;2.17;;
75520;SDS011;64102;48.628;9.002;2023-03-01T16:41:16;14.02;;;2.90;;
75520;SDS011;64102;48.628;9.002;2023-03-01T16:43:44;14.75;;;2.47;;
75520;SDS011;64102;48.628;9.002;2023-03-01T16:46:12;11.45;;;2.67;;
75520;SDS011;64102;48.628;9.002;2023-03-01T16:48:41;15.35;;;3.58;;
75520;SDS011;64102;48.628;9.002;2023-03-01T16:51:07;11.73;;;3.22;;
75520;SDS011;64102;48.628;9.002;2023-03-01T16:53:34;8.45;;;1.83;;
75520;SDS011;64102;48.628;9.002;2023-03-01T16:56:04;11.65;;;2.00;;
75520;SDS011;64102;48.628;9.002;2023-03-01T16:58:31;13.02;;;2.85;;
75520;SDS011;64102;48.628;9.002;2023-03-01T17:01:02;13.95;;;2.63;;
75520;SDS011;64102;48.628;9.002;2023-03-01T17:03:39;12.35;;;3.00;;
75520;SDS011;64102;48.628;9.002;2023-03-01T17:06:06;13.77;;;3.00;;
75520;SDS011;64102;48.628;9.002;2023-03-01T17:08:36;12.23;;;2.60;;
75520;SDS011;64102;48.628;9.002;2023-03-01T17:13:32;11.65;;;2.90;;
75520;SDS011;64102;48.628;9.002;2023-03-01T17:15:59;12.52;;;2.08;;
75520;SDS011;64102;48.628;9.002;2023-03-01T17:18:24;17.48;;;2.90;;